Vancouver — WDG2203 — position and weather

sailwx.info

Track history (hours):
 
Tides and Currents Weather Stations Pressure Air Temp Water Temp Dewpoint Dewpoint Depression Visibility Wind Speed Wind Dir Waves Ship Positions

Vancouver

Owner: Shaver Transportation Company, Portland, OR. More information available from US FCC via Universal Licensing System and Coast Guard Vessel Documentation Center.

Last reported at 2017-Dec-16 12:30 UTC. Time now 2017-Dec-16 12:59 UTC.
Position N 46°05' W 122°56'.

Length 23 m.

Type: Tug. MMSI: 367513220.

Date/timePositionNaut miles runAvg speedWind from/ knotsBaromVisibWave heightAir tempDewpointWater temp
2017-Dec-16 12:30N 46°05' W 122°56'0 0.0
2017-Dec-16 12:00N 46°05' W 122°56'0 0.0
2017-Dec-16 11:27N 46°05' W 122°56'0 0.0
2017-Dec-16 10:54N 46°05' W 122°56'0 0.0
2017-Dec-16 10:27N 46°05' W 122°56'0 0.0
2017-Dec-16 09:51N 46°05' W 122°56'0 0.0
2017-Dec-16 09:30N 46°05' W 122°56'0 0.0
2017-Dec-16 09:00N 46°05' W 122°56'0 0.0
2017-Dec-16 08:24N 46°05' W 122°56'0 0.0
2017-Dec-16 08:00N 46°05' W 122°56'0 0.0
2017-Dec-16 07:30N 46°05' W 122°56'0 0.0
2017-Dec-16 07:00N 46°05' W 122°56'0 0.0
2017-Dec-16 06:27N 46°05' W 122°56'0 0.0
2017-Dec-16 05:57N 46°05' W 122°56'0 0.0
2017-Dec-16 05:27N 46°05' W 122°56'0 0.0
2017-Dec-16 04:51N 46°05' W 122°56'0 0.0
2017-Dec-16 04:30N 46°05' W 122°56'0 0.0
2017-Dec-16 04:00N 46°05' W 122°56'0 0.0
2017-Dec-16 03:30N 46°05' W 122°56'0 0.0
2017-Dec-16 02:54N 46°05' W 122°56'0 0.0
2017-Dec-16 02:30N 46°05' W 122°56'0 0.0
2017-Dec-16 01:57N 46°05' W 122°56'0 0.0
2017-Dec-16 01:30N 46°05' W 122°56'0 0.0
2017-Dec-16 00:57N 46°05' W 122°56'0 0.0
2017-Dec-16 00:21N 46°05' W 122°56'0 0.0
2017-Dec-16 00:00N 46°05' W 122°56'0 0.0
2017-Dec-15 23:30N 46°05' W 122°56'0 0.1
2017-Dec-15 21:20N 46°06' W 122°56'2 4.2
2017-Dec-15 20:58N 46°06' W 122°58'2 2.3
2017-Dec-15 20:14N 46°05' W 122°56'0 0.0
2017-Dec-15 19:59N 46°05' W 122°56'0 0.0
2017-Dec-15 19:17N 46°05' W 122°56'0 0.0
2017-Dec-15 18:59N 46°05' W 122°56'0 0.0
2017-Dec-15 18:23N 46°05' W 122°56'0 0.0
2017-Dec-15 17:59N 46°05' W 122°56'0 0.0
2017-Dec-15 17:29N 46°05' W 122°56'0 0.0
2017-Dec-15 16:59N 46°05' W 122°56'0 0.0
2017-Dec-15 16:29N 46°05' W 122°56'0 0.0
2017-Dec-15 15:59N 46°05' W 122°56'0 0.0
2017-Dec-15 15:30N 46°05' W 122°56'1 1.1
2017-Dec-15 15:00N 46°06' W 122°56'0 0.7
2017-Dec-15 14:31N 46°06' W 122°57'1 1.1
2017-Dec-15 13:54N 46°06' W 122°57'0 0.0
2017-Dec-15 13:30N 46°06' W 122°57'0 0.4
2017-Dec-15 12:23N 46°06' W 122°57'1 2.4
2017-Dec-15 11:59N 46°05' W 122°56'0 0.0
2017-Dec-15 11:29N 46°05' W 122°56'0 0.0
2017-Dec-15 10:59N 46°05' W 122°56'0 0.0
2017-Dec-15 10:23N 46°05' W 122°56'0 0.0
2017-Dec-15 09:41N 46°05' W 122°56'0 0.0
2017-Dec-15 09:14N 46°05' W 122°56'0 0.0
2017-Dec-15 08:56N 46°05' W 122°56'0 0.0
2017-Dec-15 08:02N 46°05' W 122°56'0 0.0
2017-Dec-15 07:53N 46°05' W 122°56'0 0.1
2017-Dec-15 07:25N 46°05' W 122°56'3 6.2
2017-Dec-15 07:00N 46°07' W 122°59'610.5
2017-Dec-15 06:28N 46°10' W 123°06'3 5.2
2017-Dec-15 05:53N 46°11' W 123°10'810.2
2017-Dec-15 05:05N 46°07' W 122°59'114.2
2017-Dec-15 05:00N 46°07' W 122°58'1 1.7
2017-Dec-15 04:29N 46°06' W 122°57'0 0.0
2017-Dec-15 03:44N 46°06' W 122°57'0 0.0
2017-Dec-15 02:25N 46°06' W 122°57'1 0.5
2017-Dec-15 01:01N 46°06' W 122°57'0 0.2
2017-Dec-15 00:30N 46°06' W 122°56'1 0.1
2017-Dec-14 18:30N 46°06' W 122°57'1 1.2
2017-Dec-14 18:00N 46°06' W 122°58'2 2.6
2017-Dec-14 17:24N 46°05' W 122°56'0 0.0
2017-Dec-14 17:00N 46°05' W 122°56'0 0.0
2017-Dec-14 16:30N 46°05' W 122°56'0 0.0
2017-Dec-14 16:00N 46°05' W 122°56'0 0.0
2017-Dec-14 14:57N 46°05' W 122°56'0 0.0
2017-Dec-14 14:24N 46°05' W 122°56'0 0.0
2017-Dec-14 13:54N 46°05' W 122°56'0 0.0
2017-Dec-14 13:30N 46°05' W 122°56'0 0.0
2017-Dec-14 12:57N 46°05' W 122°56'0 0.0
2017-Dec-14 12:24N 46°05' W 122°56'0 0.1
2017-Dec-14 11:57N 46°05' W 122°56'0 0.1
2017-Dec-14 11:27N 46°05' W 122°56'0 0.0
2017-Dec-14 10:48N 46°05' W 122°56'0 0.0
2017-Dec-14 10:27N 46°05' W 122°56'0 0.0
2017-Dec-14 10:00N 46°05' W 122°56'0 0.0
2017-Dec-14 09:24N 46°05' W 122°56'0 0.0
2017-Dec-14 09:00N 46°05' W 122°56'0 0.0
2017-Dec-14 08:30N 46°05' W 122°56'0 0.0
2017-Dec-14 07:49N 46°05' W 122°56'0 0.0
2017-Dec-14 07:30N 46°05' W 122°56'0 0.0
2017-Dec-14 07:01N 46°05' W 122°56'0 0.0
2017-Dec-14 06:22N 46°05' W 122°56'0 0.0
2017-Dec-14 05:58N 46°05' W 122°56'0 0.0
2017-Dec-14 05:30N 46°05' W 122°56'0 0.0
2017-Dec-14 04:55N 46°05' W 122°56'0 0.0
2017-Dec-14 04:31N 46°05' W 122°56'0 0.0
2017-Dec-14 04:00N 46°05' W 122°56'0 0.0
2017-Dec-14 03:28N 46°05' W 122°56'0 0.0
2017-Dec-14 03:00N 46°05' W 122°56'0 0.0
2017-Dec-14 02:30N 46°05' W 122°56'0 0.0
2017-Dec-14 02:01N 46°05' W 122°56'0 0.0
2017-Dec-14 01:27N 46°05' W 122°56'0 0.0
2017-Dec-14 00:58N 46°05' W 122°56'0 0.0
2017-Dec-14 00:30N 46°05' W 122°56'0 0.0
2017-Dec-14 00:00N 46°05' W 122°56'0 0.0
2017-Dec-13 23:12N 46°05' W 122°56'0 0.0
2017-Dec-13 22:48N 46°05' W 122°56'0 0.0
2017-Dec-13 22:30N 46°05' W 122°56'0 0.0
2017-Dec-13 21:57N 46°05' W 122°56'0 0.0
2017-Dec-13 21:24N 46°05' W 122°56'0 0.0
2017-Dec-13 20:48N 46°05' W 122°56'0 0.0
2017-Dec-13 20:24N 46°05' W 122°56'0 0.0
2017-Dec-13 19:51N 46°05' W 122°56'0 0.0
2017-Dec-13 19:30N 46°05' W 122°56'0 0.0
2017-Dec-13 18:48N 46°05' W 122°56'0 0.0
2017-Dec-13 18:30N 46°05' W 122°56'0 0.0
2017-Dec-13 17:54N 46°05' W 122°56'0 0.1
2017-Dec-13 17:30N 46°05' W 122°56'0 0.0
2017-Dec-13 17:00N 46°05' W 122°56'0 0.0
2017-Dec-13 16:27N 46°05' W 122°56'0 0.0
2017-Dec-13 16:00N 46°05' W 122°56'0 0.0
2017-Dec-13 15:30N 46°05' W 122°56'0 0.0
2017-Dec-13 14:54N 46°05' W 122°56'0 0.0
2017-Dec-13 14:30N 46°05' W 122°56'0 0.0
2017-Dec-13 14:00N 46°05' W 122°56'0 0.0
2017-Dec-13 13:30N 46°05' W 122°56'0 0.0
2017-Dec-13 13:00N 46°05' W 122°56'0 0.0
2017-Dec-13 12:27N 46°05' W 122°56'0 0.0
2017-Dec-13 12:00N 46°05' W 122°56'0 0.0
2017-Dec-13 11:30N 46°05' W 122°56'0 0.0
2017-Dec-13 11:00N 46°05' W 122°56'0 0.0
2017-Dec-13 10:30N 46°05' W 122°56'0 0.0
2017-Dec-13 10:00N 46°05' W 122°56'0 0.0
2017-Dec-13 09:24N 46°05' W 122°56'0 0.0
2017-Dec-13 09:00N 46°05' W 122°56'0 0.0
2017-Dec-13 08:30N 46°05' W 122°56'0 0.0
2017-Dec-13 07:42N 46°05' W 122°56'0 0.0
2017-Dec-13 07:27N 46°05' W 122°56'0 0.0
2017-Dec-13 06:57N 46°05' W 122°56'0 0.0
2017-Dec-13 06:27N 46°05' W 122°56'0 0.0
2017-Dec-13 06:00N 46°05' W 122°56'0 0.0
2017-Dec-13 05:30N 46°05' W 122°56'0 0.0
2017-Dec-13 05:00N 46°05' W 122°56'0 0.0
2017-Dec-13 04:30N 46°05' W 122°56'0 0.0
2017-Dec-13 04:00N 46°05' W 122°56'1 1.4
2017-Dec-13 03:30N 46°06' W 122°57'0 0.6
2017-Dec-13 03:00N 46°06' W 122°56'0 0.1
2017-Dec-13 02:30N 46°06' W 122°56'0 0.0
2017-Dec-13 01:29N 46°06' W 122°56'0 0.0
2017-Dec-13 01:01N 46°06' W 122°56'1 1.0
2017-Dec-13 00:29N 46°05' W 122°56'0 0.0
2017-Dec-12 23:59N 46°05' W 122°56'0 0.0
2017-Dec-12 23:23N 46°05' W 122°56'0 0.0
2017-Dec-12 22:59N 46°05' W 122°56'1 1.9
2017-Dec-12 22:31N 46°06' W 122°57'5 9.4
2017-Dec-12 22:01N 46°09' W 123°02'5 9.5
2017-Dec-12 21:31N 46°11' W 123°08'5 9.1
2017-Dec-12 21:01N 46°10' W 123°14'4 8.9
2017-Dec-12 20:30N 46°09' W 123°21'4 8.4
2017-Dec-12 20:00N 46°11' W 123°26'5 9.0
2017-Dec-12 19:24N 46°16' W 123°29'4 9.7
2017-Dec-12 18:58N 46°15' W 123°35'510.1
2017-Dec-12 18:31N 46°15' W 123°41'510.2
2017-Dec-12 18:00N 46°12' W 123°48'3 5.8
2017-Dec-12 17:30N 46°11' W 123°52'0 0.1
2017-Dec-12 17:00N 46°11' W 123°52'0 0.9
2017-Dec-12 16:31N 46°12' W 123°51'1 1.9
2017-Dec-12 16:00N 46°12' W 123°50'0 0.9
2017-Dec-12 15:31N 46°12' W 123°50'1 1.9
2017-Dec-12 15:00N 46°11' W 123°52'0 0.0
2017-Dec-12 14:30N 46°11' W 123°52'1 1.3
2017-Dec-12 14:00N 46°12' W 123°51'4 7.8
2017-Dec-12 13:31N 46°13' W 123°46'4 8.2
2017-Dec-12 13:00N 46°15' W 123°40'4 9.0
2017-Dec-12 12:30N 46°15' W 123°34'5 9.1
2017-Dec-12 12:00N 46°16' W 123°27'510.1
2017-Dec-12 11:30N 46°11' W 123°26'510.2
2017-Dec-12 11:00N 46°09' W 123°19'510.6
2017-Dec-12 10:30N 46°11' W 123°12'5 9.5
2017-Dec-12 10:00N 46°10' W 123°05'510.3
2017-Dec-12 09:30N 46°07' W 122°59'3 5.0
2017-Dec-12 08:57N 46°05' W 122°56'0 0.0
2017-Dec-12 08:30N 46°05' W 122°56'0 0.0
2017-Dec-12 08:00N 46°05' W 122°56'0 0.0
2017-Dec-12 07:27N 46°05' W 122°56'0 0.0
2017-Dec-12 06:57N 46°05' W 122°56'0 0.0
2017-Dec-12 06:30N 46°05' W 122°56'0 0.0
2017-Dec-12 05:57N 46°05' W 122°56'0 0.0
2017-Dec-12 05:15N 46°05' W 122°56'0 0.0
2017-Dec-12 05:00N 46°05' W 122°56'0 0.0
2017-Dec-12 04:30N 46°05' W 122°56'0 0.0
2017-Dec-12 03:51N 46°05' W 122°56'0 0.0
2017-Dec-12 02:54N 46°05' W 122°56'0 0.0
2017-Dec-12 02:27N 46°05' W 122°56'0 0.0
2017-Dec-12 01:57N 46°05' W 122°56'0 0.0
2017-Dec-12 01:12N 46°05' W 122°56'0 0.0
2017-Dec-12 01:00N 46°05' W 122°56'0 0.0
2017-Dec-12 00:30N 46°05' W 122°56'0 0.0
2017-Dec-11 23:54N 46°05' W 122°56'0 0.0
2017-Dec-11 23:30N 46°05' W 122°56'0 0.0
2017-Dec-11 23:00N 46°05' W 122°56'0 0.0
2017-Dec-11 22:30N 46°05' W 122°56'0 0.0
2017-Dec-11 21:57N 46°05' W 122°56'0 0.0
2017-Dec-11 21:27N 46°05' W 122°56'0 0.0
2017-Dec-11 21:00N 46°05' W 122°56'0 0.0
2017-Dec-11 20:30N 46°05' W 122°56'0 0.0
2017-Dec-11 19:58N 46°05' W 122°56'0 0.0
2017-Dec-11 19:22N 46°05' W 122°56'0 0.0
2017-Dec-11 18:54N 46°05' W 122°56'0 0.0
2017-Dec-11 18:28N 46°05' W 122°56'0 0.0
2017-Dec-11 18:00N 46°05' W 122°56'0 0.0
2017-Dec-11 17:00N 46°05' W 122°56'0 0.0
2017-Dec-11 16:27N 46°05' W 122°56'0 0.0
2017-Dec-11 15:57N 46°05' W 122°56'0 0.0
2017-Dec-11 15:24N 46°05' W 122°56'0 0.0
2017-Dec-11 15:00N 46°05' W 122°56'0 0.0
2017-Dec-11 14:27N 46°05' W 122°56'0 0.0
2017-Dec-11 14:00N 46°05' W 122°56'1 1.1
2017-Dec-11 13:30N 46°06' W 122°56'0 0.0
2017-Dec-11 13:00N 46°06' W 122°56'0 0.7
2017-Dec-11 12:30N 46°06' W 122°56'0 0.2
2017-Dec-11 12:00N 46°06' W 122°56'0 0.1
2017-Dec-11 11:30N 46°06' W 122°56'0 0.1
2017-Dec-11 11:00N 46°06' W 122°56'0 0.2
2017-Dec-11 10:30N 46°06' W 122°56'2 3.9
2017-Dec-11 10:00N 46°07' W 122°59'1 1.8
2017-Dec-11 09:30N 46°06' W 122°58'1 2.7
2017-Dec-11 09:00N 46°05' W 122°56'0 0.0
2017-Dec-11 08:03N 46°05' W 122°56'0 0.0
2017-Dec-11 08:00N 46°05' W 122°56'0 0.0
2017-Dec-11 07:18N 46°05' W 122°56'0 0.0
2017-Dec-11 07:00N 46°05' W 122°56'0 0.0
2017-Dec-11 06:30N 46°05' W 122°56'0 0.0
2017-Dec-11 06:00N 46°05' W 122°56'0 0.0
2017-Dec-11 05:30N 46°05' W 122°56'0 0.0
2017-Dec-11 04:21N 46°05' W 122°56'0 0.0
2017-Dec-11 03:48N 46°05' W 122°56'0 0.0
2017-Dec-11 03:30N 46°05' W 122°56'0 0.0
2017-Dec-11 02:33N 46°05' W 122°56'0 0.0
2017-Dec-11 02:30N 46°05' W 122°56'0 0.0
2017-Dec-11 02:00N 46°05' W 122°56'0 0.0
2017-Dec-11 01:30N 46°05' W 122°56'0 0.0
2017-Dec-11 00:57N 46°05' W 122°56'0 0.0
2017-Dec-11 00:03N 46°05' W 122°56'0 0.0
2017-Dec-11 00:00N 46°05' W 122°56'0 0.0
2017-Dec-10 23:30N 46°05' W 122°56'0 0.0
2017-Dec-10 23:00N 46°05' W 122°56'0 0.0
2017-Dec-10 22:30N 46°05' W 122°56'0 0.0
2017-Dec-10 21:57N 46°05' W 122°56'0 0.0
2017-Dec-10 21:30N 46°05' W 122°56'0 0.0
2017-Dec-10 20:57N 46°05' W 122°56'0 0.0
2017-Dec-10 20:21N 46°05' W 122°56'0 0.0
2017-Dec-10 20:00N 46°05' W 122°56'0 0.0
2017-Dec-10 19:06N 46°05' W 122°56'0 0.0
2017-Dec-10 18:57N 46°05' W 122°56'0 0.0
2017-Dec-10 18:30N 46°05' W 122°56'0 0.0
2017-Dec-10 17:57N 46°05' W 122°56'0 0.0
2017-Dec-10 17:21N 46°05' W 122°56'0 0.0
2017-Dec-10 17:00N 46°05' W 122°56'0 0.0
2017-Dec-10 16:30N 46°05' W 122°56'3 7.0
2017-Dec-10 16:01N 46°08' W 122°60'2 4.0
2017-Dec-10 15:30N 46°09' W 123°02'5 8.8
2017-Dec-10 14:56N 46°06' W 122°56'0 1.0
2017-Dec-10 14:30N 46°05' W 122°56'0 0.0
2017-Dec-10 14:00N 46°05' W 122°56'0 0.0
2017-Dec-10 13:21N 46°05' W 122°56'0 0.0
2017-Dec-10 13:00N 46°05' W 122°56'0 0.0
2017-Dec-10 12:27N 46°05' W 122°56'0 0.0
2017-Dec-10 12:00N 46°05' W 122°56'0 0.0
2017-Dec-10 11:30N 46°05' W 122°56'0 0.0
2017-Dec-10 11:00N 46°05' W 122°56'0 0.0
2017-Dec-10 10:24N 46°05' W 122°56'0 0.0
2017-Dec-10 09:54N 46°05' W 122°56'0 0.0
2017-Dec-10 09:30N 46°05' W 122°56'0 0.0
2017-Dec-10 08:57N 46°05' W 122°56'0 0.0
2017-Dec-10 08:30N 46°05' W 122°56'0 0.0
2017-Dec-10 08:00N 46°05' W 122°56'0 0.0
2017-Dec-10 07:15N 46°05' W 122°56'0 0.0
2017-Dec-10 07:00N 46°05' W 122°56'0 0.0
2017-Dec-10 06:30N 46°05' W 122°56'0 0.0
2017-Dec-10 06:00N 46°05' W 122°56'0 0.0
2017-Dec-10 05:21N 46°05' W 122°56'0 0.0
2017-Dec-10 04:57N 46°05' W 122°56'0 0.0
2017-Dec-10 04:27N 46°05' W 122°56'0 0.0
2017-Dec-10 04:00N 46°05' W 122°56'0 0.0
2017-Dec-10 03:30N 46°05' W 122°56'0 0.0
2017-Dec-10 03:00N 46°05' W 122°56'0 0.0
2017-Dec-10 02:24N 46°05' W 122°56'0 0.0
2017-Dec-10 02:00N 46°05' W 122°56'0 0.0
2017-Dec-10 01:30N 46°05' W 122°56'0 0.0
2017-Dec-10 01:00N 46°05' W 122°56'0 0.0
2017-Dec-10 00:27N 46°05' W 122°56'0 0.0
2017-Dec-09 23:51N 46°05' W 122°56'0 0.0
2017-Dec-09 23:30N 46°05' W 122°56'0 0.0
2017-Dec-09 22:51N 46°05' W 122°56'0 0.0
2017-Dec-09 22:30N 46°05' W 122°56'0 0.0
2017-Dec-09 22:00N 46°05' W 122°56'0 0.0
2017-Dec-09 21:30N 46°05' W 122°56'0 0.0
2017-Dec-09 21:00N 46°05' W 122°56'0 0.0
2017-Dec-09 20:30N 46°05' W 122°56'0 0.0
2017-Dec-09 20:00N 46°05' W 122°56'0 0.0
2017-Dec-09 19:30N 46°05' W 122°56'0 0.0
2017-Dec-09 18:27N 46°05' W 122°56'0 0.0
2017-Dec-09 18:00N 46°05' W 122°56'0 0.0
2017-Dec-09 17:27N 46°05' W 122°56'0 0.0
2017-Dec-09 17:00N 46°05' W 122°56'0 0.0
2017-Dec-09 16:27N 46°05' W 122°56'0 0.0
2017-Dec-09 15:45N 46°05' W 122°56'0 0.0
2017-Dec-09 15:30N 46°05' W 122°56'0 0.0
2017-Dec-09 14:18N 46°05' W 122°56'0 0.0
2017-Dec-09 13:48N 46°05' W 122°56'0 0.0
2017-Dec-09 13:24N 46°05' W 122°56'0 0.0
2017-Dec-09 13:00N 46°05' W 122°56'0 0.0
2017-Dec-09 12:30N 46°05' W 122°56'0 0.0
2017-Dec-09 11:57N 46°05' W 122°56'0 0.0
2017-Dec-09 11:18N 46°05' W 122°56'0 0.1
2017-Dec-09 11:00N 46°05' W 122°56'0 0.1
2017-Dec-09 10:30N 46°05' W 122°56'0 0.0
2017-Dec-09 09:57N 46°05' W 122°56'0 0.0
2017-Dec-09 09:30N 46°05' W 122°56'0 0.0
2017-Dec-09 08:57N 46°05' W 122°56'0 0.0
2017-Dec-09 08:30N 46°05' W 122°56'1 2.1
2017-Dec-09 08:00N 46°06' W 122°57'0 0.1
2017-Dec-09 07:30N 46°06' W 122°57'1 1.4
2017-Dec-09 06:48N 46°05' W 122°56'0 0.0
2017-Dec-09 06:00N 46°05' W 122°56'0 0.0
2017-Dec-09 05:30N 46°05' W 122°56'0 0.0
2017-Dec-09 04:54N 46°05' W 122°56'0 0.0
2017-Dec-09 04:30N 46°05' W 122°56'0 0.0
2017-Dec-09 04:00N 46°05' W 122°56'1 1.1
2017-Dec-09 03:30N 46°06' W 122°56'0 0.1
2017-Dec-09 03:01N 46°06' W 122°56'0 0.1
2017-Dec-09 02:31N 46°06' W 122°56'0 0.0
2017-Dec-09 02:00N 46°06' W 122°56'0 0.0
2017-Dec-09 01:30N 46°06' W 122°56'0 0.0
2017-Dec-09 01:00N 46°06' W 122°56'0 0.0
2017-Dec-09 00:30N 46°06' W 122°56'0 0.0
2017-Dec-09 00:00N 46°06' W 122°56'1 1.1
2017-Dec-08 23:30N 46°05' W 122°56'0 0.0
2017-Dec-08 23:00N 46°05' W 122°56'0 0.0
2017-Dec-08 22:30N 46°05' W 122°56'0 0.0
2017-Dec-08 22:00N 46°05' W 122°56'0 0.0
2017-Dec-08 21:31N 46°05' W 122°56'0 0.0
2017-Dec-08 21:00N 46°05' W 122°56'0 0.0
2017-Dec-08 20:31N 46°05' W 122°56'0 0.0
2017-Dec-08 20:00N 46°05' W 122°56'0 0.0
2017-Dec-08 19:31N 46°05' W 122°56'0 0.0
2017-Dec-08 19:00N 46°05' W 122°56'0 0.0
2017-Dec-08 18:30N 46°05' W 122°56'0 0.0
2017-Dec-08 18:00N 46°05' W 122°56'0 0.0
2017-Dec-08 17:30N 46°05' W 122°56'0 0.0
2017-Dec-08 17:00N 46°05' W 122°56'0 0.0
2017-Dec-08 16:30N 46°05' W 122°56'0 0.0
2017-Dec-08 16:00N 46°05' W 122°56'0 0.0
2017-Dec-08 15:31N 46°05' W 122°56'0 0.0
2017-Dec-08 15:00N 46°05' W 122°56'0 0.0
2017-Dec-08 14:31N 46°05' W 122°56'0 0.0
2017-Dec-08 14:00N 46°05' W 122°56'0 0.0
2017-Dec-08 13:30N 46°05' W 122°56'0 0.0
2017-Dec-08 13:00N 46°05' W 122°56'0 0.0
2017-Dec-08 12:30N 46°05' W 122°56'0 0.0
2017-Dec-08 12:00N 46°05' W 122°56'0 0.0
2017-Dec-08 11:30N 46°05' W 122°56'0 0.1
2017-Dec-08 11:00N 46°05' W 122°56'0 0.1
2017-Dec-08 10:31N 46°05' W 122°56'0 0.0
2017-Dec-08 10:00N 46°05' W 122°56'0 0.0
2017-Dec-08 09:30N 46°05' W 122°56'0 0.0
2017-Dec-08 08:56N 46°05' W 122°56'0 0.0
2017-Dec-08 08:27N 46°05' W 122°56'0 0.0
2017-Dec-08 08:00N 46°05' W 122°56'0 0.0
2017-Dec-08 07:31N 46°05' W 122°56'0 0.0
2017-Dec-08 07:00N 46°05' W 122°56'0 0.0
2017-Dec-08 06:30N 46°05' W 122°56'0 0.0
2017-Dec-08 06:00N 46°05' W 122°56'0 0.0
2017-Dec-08 05:29N 46°05' W 122°56'0 0.0
2017-Dec-08 05:00N 46°05' W 122°56'0 0.0
2017-Dec-08 04:30N 46°05' W 122°56'0 0.0
2017-Dec-08 04:00N 46°05' W 122°56'0 0.0
2017-Dec-08 03:30N 46°05' W 122°56'0 0.0
2017-Dec-08 03:00N 46°05' W 122°56'0 0.0
2017-Dec-08 02:30N 46°05' W 122°56'0 0.0
2017-Dec-08 02:00N 46°05' W 122°56'0 0.0
2017-Dec-08 01:30N 46°05' W 122°56'0 0.0
2017-Dec-08 01:00N 46°05' W 122°56'0 0.2
2017-Dec-08 00:30N 46°06' W 122°56'1 1.8
2017-Dec-08 00:00N 46°06' W 122°57'1 2.2
2017-Dec-07 23:31N 46°07' W 122°58'1 1.1
2017-Dec-07 23:00N 46°06' W 122°58'0 0.2
2017-Dec-07 22:30N 46°06' W 122°58'0 0.0
2017-Dec-07 22:00N 46°06' W 122°58'0 0.0
2017-Dec-07 21:30N 46°06' W 122°58'0 0.0
2017-Dec-07 21:00N 46°06' W 122°58'5 9.8
2017-Dec-07 20:30N 46°03' W 122°53'1 2.4
2017-Dec-07 20:01N 46°02' W 122°53'0 0.0
2017-Dec-07 19:30N 46°02' W 122°53'0 0.0
2017-Dec-07 19:00N 46°02' W 122°53'0 0.5
2017-Dec-07 18:30N 46°02' W 122°52'0 0.0
2017-Dec-07 18:00N 46°02' W 122°52'4 8.1
2017-Dec-07 17:30N 46°05' W 122°55'1 1.2
2017-Dec-07 17:00N 46°05' W 122°56'0 0.0
2017-Dec-07 16:30N 46°05' W 122°56'0 0.0
2017-Dec-07 16:00N 46°05' W 122°56'0 0.3
2017-Dec-07 15:30N 46°05' W 122°56'4 8.6
2017-Dec-07 15:00N 46°02' W 122°53'3 6.5
2017-Dec-07 14:30N 45°59' W 122°50'0 0.1
2017-Dec-07 14:00N 45°59' W 122°50'1 2.0
2017-Dec-07 13:30N 45°60' W 122°51'1 1.8
2017-Dec-07 13:00N 45°59' W 122°50'0 0.0
2017-Dec-07 12:30N 45°59' W 122°50'0 0.0
2017-Dec-07 12:00N 45°59' W 122°50'0 0.8
2017-Dec-07 11:30N 45°59' W 122°51'0 0.1
2017-Dec-07 11:00N 45°59' W 122°50'0 0.0
2017-Dec-07 10:30N 45°59' W 122°50'0 0.0
2017-Dec-07 10:00N 45°59' W 122°50'0 0.0
2017-Dec-07 09:30N 45°59' W 122°50'0 0.0
2017-Dec-07 09:00N 45°59' W 122°50'1 1.4
2017-Dec-07 08:30N 46°00' W 122°51'1 2.2
2017-Dec-07 08:00N 45°59' W 122°50'0 0.0
2017-Dec-07 07:30N 45°59' W 122°50'3 6.0
2017-Dec-07 07:00N 46°02' W 122°52'0 0.2
2017-Dec-07 06:30N 46°02' W 122°52'0 0.0
2017-Dec-07 06:00N 46°02' W 122°52'0 0.0
2017-Dec-07 05:30N 46°02' W 122°52'1 2.4
2017-Dec-07 05:01N 46°03' W 122°53'3 6.4
2017-Dec-07 04:30N 46°05' W 122°55'1 1.5
2017-Dec-07 04:01N 46°06' W 122°56'0 0.1
2017-Dec-07 03:30N 46°06' W 122°56'2 2.7
2017-Dec-07 02:38N 46°05' W 122°54'212.9
2017-Dec-07 02:31N 46°03' W 122°53'1 2.7
2017-Dec-07 02:00N 46°02' W 122°52'0 1.0
2017-Dec-07 01:30N 46°02' W 122°53'3 6.1
2017-Dec-07 01:00N 46°05' W 122°54'2 3.7
2017-Dec-07 00:30N 46°06' W 122°56'0 0.1
2017-Dec-07 00:00N 46°06' W 122°56'1 1.0
2017-Dec-06 23:30N 46°05' W 122°56'0 0.0
2017-Dec-06 22:56N 46°05' W 122°56'0 0.0
2017-Dec-06 22:26N 46°05' W 122°56'0 0.0
2017-Dec-06 21:59N 46°05' W 122°56'0 0.0
2017-Dec-06 21:26N 46°05' W 122°56'0 0.0
2017-Dec-06 20:59N 46°05' W 122°56'  
Track history (hours):
 
Tides and Currents Weather Stations Pressure Air Temp Water Temp Dewpoint Dewpoint Depression Visibility Wind Speed Wind Dir Waves Ship Positions

Vancouver

Owner: Shaver Transportation Company, Portland, OR. More information available from US FCC via Universal Licensing System and Coast Guard Vessel Documentation Center.

Last reported at 2017-Dec-16 12:30 UTC. Time now 2017-Dec-16 12:59 UTC.
Position N 46°05' W 122°56'.

Length 23 m.

Type: Tug. MMSI: 367513220.

Date/timePositionNaut miles runAvg speedWind from/ knotsBaromVisibWave heightAir tempDewpointWater temp
2017-Dec-16 12:30N 46°05' W 122°56'0 0.0
2017-Dec-16 12:00N 46°05' W 122°56'0 0.0
2017-Dec-16 11:27N 46°05' W 122°56'0 0.0
2017-Dec-16 10:54N 46°05' W 122°56'0 0.0
2017-Dec-16 10:27N 46°05' W 122°56'0 0.0
2017-Dec-16 09:51N 46°05' W 122°56'0 0.0
2017-Dec-16 09:30N 46°05' W 122°56'0 0.0
2017-Dec-16 09:00N 46°05' W 122°56'0 0.0
2017-Dec-16 08:24N 46°05' W 122°56'0 0.0
2017-Dec-16 08:00N 46°05' W 122°56'0 0.0
2017-Dec-16 07:30N 46°05' W 122°56'0 0.0
2017-Dec-16 07:00N 46°05' W 122°56'0 0.0
2017-Dec-16 06:27N 46°05' W 122°56'0 0.0
2017-Dec-16 05:57N 46°05' W 122°56'0 0.0
2017-Dec-16 05:27N 46°05' W 122°56'0 0.0
2017-Dec-16 04:51N 46°05' W 122°56'0 0.0
2017-Dec-16 04:30N 46°05' W 122°56'0 0.0
2017-Dec-16 04:00N 46°05' W 122°56'0 0.0
2017-Dec-16 03:30N 46°05' W 122°56'0 0.0
2017-Dec-16 02:54N 46°05' W 122°56'0 0.0
2017-Dec-16 02:30N 46°05' W 122°56'0 0.0
2017-Dec-16 01:57N 46°05' W 122°56'0 0.0
2017-Dec-16 01:30N 46°05' W 122°56'0 0.0
2017-Dec-16 00:57N 46°05' W 122°56'0 0.0
2017-Dec-16 00:21N 46°05' W 122°56'0 0.0
2017-Dec-16 00:00N 46°05' W 122°56'0 0.0
2017-Dec-15 23:30N 46°05' W 122°56'0 0.1
2017-Dec-15 21:20N 46°06' W 122°56'2 4.2
2017-Dec-15 20:58N 46°06' W 122°58'2 2.3
2017-Dec-15 20:14N 46°05' W 122°56'0 0.0
2017-Dec-15 19:59N 46°05' W 122°56'0 0.0
2017-Dec-15 19:17N 46°05' W 122°56'0 0.0
2017-Dec-15 18:59N 46°05' W 122°56'0 0.0
2017-Dec-15 18:23N 46°05' W 122°56'0 0.0
2017-Dec-15 17:59N 46°05' W 122°56'0 0.0
2017-Dec-15 17:29N 46°05' W 122°56'0 0.0
2017-Dec-15 16:59N 46°05' W 122°56'0 0.0
2017-Dec-15 16:29N 46°05' W 122°56'0 0.0
2017-Dec-15 15:59N 46°05' W 122°56'0 0.0
2017-Dec-15 15:30N 46°05' W 122°56'1 1.1
2017-Dec-15 15:00N 46°06' W 122°56'0 0.7
2017-Dec-15 14:31N 46°06' W 122°57'1 1.1
2017-Dec-15 13:54N 46°06' W 122°57'0 0.0
2017-Dec-15 13:30N 46°06' W 122°57'0 0.4
2017-Dec-15 12:23N 46°06' W 122°57'1 2.4
2017-Dec-15 11:59N 46°05' W 122°56'0 0.0
2017-Dec-15 11:29N 46°05' W 122°56'0 0.0
2017-Dec-15 10:59N 46°05' W 122°56'0 0.0
2017-Dec-15 10:23N 46°05' W 122°56'0 0.0
2017-Dec-15 09:41N 46°05' W 122°56'0 0.0
2017-Dec-15 09:14N 46°05' W 122°56'0 0.0
2017-Dec-15 08:56N 46°05' W 122°56'0 0.0
2017-Dec-15 08:02N 46°05' W 122°56'0 0.0
2017-Dec-15 07:53N 46°05' W 122°56'0 0.1
2017-Dec-15 07:25N 46°05' W 122°56'3 6.2
2017-Dec-15 07:00N 46°07' W 122°59'610.5
2017-Dec-15 06:28N 46°10' W 123°06'3 5.2
2017-Dec-15 05:53N 46°11' W 123°10'810.2
2017-Dec-15 05:05N 46°07' W 122°59'114.2
2017-Dec-15 05:00N 46°07' W 122°58'1 1.7
2017-Dec-15 04:29N 46°06' W 122°57'0 0.0
2017-Dec-15 03:44N 46°06' W 122°57'0 0.0
2017-Dec-15 02:25N 46°06' W 122°57'1 0.5
2017-Dec-15 01:01N 46°06' W 122°57'0 0.2
2017-Dec-15 00:30N 46°06' W 122°56'1 0.1
2017-Dec-14 18:30N 46°06' W 122°57'1 1.2
2017-Dec-14 18:00N 46°06' W 122°58'2 2.6
2017-Dec-14 17:24N 46°05' W 122°56'0 0.0
2017-Dec-14 17:00N 46°05' W 122°56'0 0.0
2017-Dec-14 16:30N 46°05' W 122°56'0 0.0
2017-Dec-14 16:00N 46°05' W 122°56'0 0.0
2017-Dec-14 14:57N 46°05' W 122°56'0 0.0
2017-Dec-14 14:24N 46°05' W 122°56'0 0.0
2017-Dec-14 13:54N 46°05' W 122°56'0 0.0
2017-Dec-14 13:30N 46°05' W 122°56'0 0.0
2017-Dec-14 12:57N 46°05' W 122°56'0 0.0
2017-Dec-14 12:24N 46°05' W 122°56'0 0.1
2017-Dec-14 11:57N 46°05' W 122°56'0 0.1
2017-Dec-14 11:27N 46°05' W 122°56'0 0.0
2017-Dec-14 10:48N 46°05' W 122°56'0 0.0
2017-Dec-14 10:27N 46°05' W 122°56'0 0.0
2017-Dec-14 10:00N 46°05' W 122°56'0 0.0
2017-Dec-14 09:24N 46°05' W 122°56'0 0.0
2017-Dec-14 09:00N 46°05' W 122°56'0 0.0
2017-Dec-14 08:30N 46°05' W 122°56'0 0.0
2017-Dec-14 07:49N 46°05' W 122°56'0 0.0
2017-Dec-14 07:30N 46°05' W 122°56'0 0.0
2017-Dec-14 07:01N 46°05' W 122°56'0 0.0
2017-Dec-14 06:22N 46°05' W 122°56'0 0.0
2017-Dec-14 05:58N 46°05' W 122°56'0 0.0
2017-Dec-14 05:30N 46°05' W 122°56'0 0.0
2017-Dec-14 04:55N 46°05' W 122°56'0 0.0
2017-Dec-14 04:31N 46°05' W 122°56'0 0.0
2017-Dec-14 04:00N 46°05' W 122°56'0 0.0
2017-Dec-14 03:28N 46°05' W 122°56'0 0.0
2017-Dec-14 03:00N 46°05' W 122°56'0 0.0
2017-Dec-14 02:30N 46°05' W 122°56'0 0.0
2017-Dec-14 02:01N 46°05' W 122°56'0 0.0
2017-Dec-14 01:27N 46°05' W 122°56'0 0.0
2017-Dec-14 00:58N 46°05' W 122°56'0 0.0
2017-Dec-14 00:30N 46°05' W 122°56'0 0.0
2017-Dec-14 00:00N 46°05' W 122°56'0 0.0
2017-Dec-13 23:12N 46°05' W 122°56'0 0.0
2017-Dec-13 22:48N 46°05' W 122°56'0 0.0
2017-Dec-13 22:30N 46°05' W 122°56'0 0.0
2017-Dec-13 21:57N 46°05' W 122°56'0 0.0
2017-Dec-13 21:24N 46°05' W 122°56'0 0.0
2017-Dec-13 20:48N 46°05' W 122°56'0 0.0
2017-Dec-13 20:24N 46°05' W 122°56'0 0.0
2017-Dec-13 19:51N 46°05' W 122°56'0 0.0
2017-Dec-13 19:30N 46°05' W 122°56'0 0.0
2017-Dec-13 18:48N 46°05' W 122°56'0 0.0
2017-Dec-13 18:30N 46°05' W 122°56'0 0.0
2017-Dec-13 17:54N 46°05' W 122°56'0 0.1
2017-Dec-13 17:30N 46°05' W 122°56'0 0.0
2017-Dec-13 17:00N 46°05' W 122°56'0 0.0
2017-Dec-13 16:27N 46°05' W 122°56'0 0.0
2017-Dec-13 16:00N 46°05' W 122°56'0 0.0
2017-Dec-13 15:30N 46°05' W 122°56'0 0.0
2017-Dec-13 14:54N 46°05' W 122°56'0 0.0
2017-Dec-13 14:30N 46°05' W 122°56'0 0.0
2017-Dec-13 14:00N 46°05' W 122°56'0 0.0
2017-Dec-13 13:30N 46°05' W 122°56'0 0.0
2017-Dec-13 13:00N 46°05' W 122°56'0 0.0
2017-Dec-13 12:27N 46°05' W 122°56'0 0.0
2017-Dec-13 12:00N 46°05' W 122°56'0 0.0
2017-Dec-13 11:30N 46°05' W 122°56'0 0.0
2017-Dec-13 11:00N 46°05' W 122°56'0 0.0
2017-Dec-13 10:30N 46°05' W 122°56'0 0.0
2017-Dec-13 10:00N 46°05' W 122°56'0 0.0
2017-Dec-13 09:24N 46°05' W 122°56'0 0.0
2017-Dec-13 09:00N 46°05' W 122°56'0 0.0
2017-Dec-13 08:30N 46°05' W 122°56'0 0.0
2017-Dec-13 07:42N 46°05' W 122°56'0 0.0
2017-Dec-13 07:27N 46°05' W 122°56'0 0.0
2017-Dec-13 06:57N 46°05' W 122°56'0 0.0
2017-Dec-13 06:27N 46°05' W 122°56'0 0.0
2017-Dec-13 06:00N 46°05' W 122°56'0 0.0
2017-Dec-13 05:30N 46°05' W 122°56'0 0.0
2017-Dec-13 05:00N 46°05' W 122°56'0 0.0
2017-Dec-13 04:30N 46°05' W 122°56'0 0.0
2017-Dec-13 04:00N 46°05' W 122°56'1 1.4
2017-Dec-13 03:30N 46°06' W 122°57'0 0.6
2017-Dec-13 03:00N 46°06' W 122°56'0 0.1
2017-Dec-13 02:30N 46°06' W 122°56'0 0.0
2017-Dec-13 01:29N 46°06' W 122°56'0 0.0
2017-Dec-13 01:01N 46°06' W 122°56'1 1.0
2017-Dec-13 00:29N 46°05' W 122°56'0 0.0
2017-Dec-12 23:59N 46°05' W 122°56'0 0.0
2017-Dec-12 23:23N 46°05' W 122°56'0 0.0
2017-Dec-12 22:59N 46°05' W 122°56'1 1.9
2017-Dec-12 22:31N 46°06' W 122°57'5 9.4
2017-Dec-12 22:01N 46°09' W 123°02'5 9.5
2017-Dec-12 21:31N 46°11' W 123°08'5 9.1
2017-Dec-12 21:01N 46°10' W 123°14'4 8.9
2017-Dec-12 20:30N 46°09' W 123°21'4 8.4
2017-Dec-12 20:00N 46°11' W 123°26'5 9.0
2017-Dec-12 19:24N 46°16' W 123°29'4 9.7
2017-Dec-12 18:58N 46°15' W 123°35'510.1
2017-Dec-12 18:31N 46°15' W 123°41'510.2
2017-Dec-12 18:00N 46°12' W 123°48'3 5.8
2017-Dec-12 17:30N 46°11' W 123°52'0 0.1
2017-Dec-12 17:00N 46°11' W 123°52'0 0.9
2017-Dec-12 16:31N 46°12' W 123°51'1 1.9
2017-Dec-12 16:00N 46°12' W 123°50'0 0.9
2017-Dec-12 15:31N 46°12' W 123°50'1 1.9
2017-Dec-12 15:00N 46°11' W 123°52'0 0.0
2017-Dec-12 14:30N 46°11' W 123°52'1 1.3
2017-Dec-12 14:00N 46°12' W 123°51'4 7.8
2017-Dec-12 13:31N 46°13' W 123°46'4 8.2
2017-Dec-12 13:00N 46°15' W 123°40'4 9.0
2017-Dec-12 12:30N 46°15' W 123°34'5 9.1
2017-Dec-12 12:00N 46°16' W 123°27'510.1
2017-Dec-12 11:30N 46°11' W 123°26'510.2
2017-Dec-12 11:00N 46°09' W 123°19'510.6
2017-Dec-12 10:30N 46°11' W 123°12'5 9.5
2017-Dec-12 10:00N 46°10' W 123°05'510.3
2017-Dec-12 09:30N 46°07' W 122°59'3 5.0
2017-Dec-12 08:57N 46°05' W 122°56'0 0.0
2017-Dec-12 08:30N 46°05' W 122°56'0 0.0
2017-Dec-12 08:00N 46°05' W 122°56'0 0.0
2017-Dec-12 07:27N 46°05' W 122°56'0 0.0
2017-Dec-12 06:57N 46°05' W 122°56'0 0.0
2017-Dec-12 06:30N 46°05' W 122°56'0 0.0
2017-Dec-12 05:57N 46°05' W 122°56'0 0.0
2017-Dec-12 05:15N 46°05' W 122°56'0 0.0
2017-Dec-12 05:00N 46°05' W 122°56'0 0.0
2017-Dec-12 04:30N 46°05' W 122°56'0 0.0
2017-Dec-12 03:51N 46°05' W 122°56'0 0.0
2017-Dec-12 02:54N 46°05' W 122°56'0 0.0
2017-Dec-12 02:27N 46°05' W 122°56'0 0.0
2017-Dec-12 01:57N 46°05' W 122°56'0 0.0
2017-Dec-12 01:12N 46°05' W 122°56'0 0.0
2017-Dec-12 01:00N 46°05' W 122°56'0 0.0
2017-Dec-12 00:30N 46°05' W 122°56'0 0.0
2017-Dec-11 23:54N 46°05' W 122°56'0 0.0
2017-Dec-11 23:30N 46°05' W 122°56'0 0.0
2017-Dec-11 23:00N 46°05' W 122°56'0 0.0
2017-Dec-11 22:30N 46°05' W 122°56'0 0.0
2017-Dec-11 21:57N 46°05' W 122°56'0 0.0
2017-Dec-11 21:27N 46°05' W 122°56'0 0.0
2017-Dec-11 21:00N 46°05' W 122°56'0 0.0
2017-Dec-11 20:30N 46°05' W 122°56'0 0.0
2017-Dec-11 19:58N 46°05' W 122°56'0 0.0
2017-Dec-11 19:22N 46°05' W 122°56'0 0.0
2017-Dec-11 18:54N 46°05' W 122°56'0 0.0
2017-Dec-11 18:28N 46°05' W 122°56'0 0.0
2017-Dec-11 18:00N 46°05' W 122°56'0 0.0
2017-Dec-11 17:00N 46°05' W 122°56'0 0.0
2017-Dec-11 16:27N 46°05' W 122°56'0 0.0
2017-Dec-11 15:57N 46°05' W 122°56'0 0.0
2017-Dec-11 15:24N 46°05' W 122°56'0 0.0
2017-Dec-11 15:00N 46°05' W 122°56'0 0.0
2017-Dec-11 14:27N 46°05' W 122°56'0 0.0
2017-Dec-11 14:00N 46°05' W 122°56'1 1.1
2017-Dec-11 13:30N 46°06' W 122°56'0 0.0
2017-Dec-11 13:00N 46°06' W 122°56'0 0.7
2017-Dec-11 12:30N 46°06' W 122°56'0 0.2
2017-Dec-11 12:00N 46°06' W 122°56'0 0.1
2017-Dec-11 11:30N 46°06' W 122°56'0 0.1
2017-Dec-11 11:00N 46°06' W 122°56'0 0.2
2017-Dec-11 10:30N 46°06' W 122°56'2 3.9
2017-Dec-11 10:00N 46°07' W 122°59'1 1.8
2017-Dec-11 09:30N 46°06' W 122°58'1 2.7
2017-Dec-11 09:00N 46°05' W 122°56'0 0.0
2017-Dec-11 08:03N 46°05' W 122°56'0 0.0
2017-Dec-11 08:00N 46°05' W 122°56'0 0.0
2017-Dec-11 07:18N 46°05' W 122°56'0 0.0
2017-Dec-11 07:00N 46°05' W 122°56'0 0.0
2017-Dec-11 06:30N 46°05' W 122°56'0 0.0
2017-Dec-11 06:00N 46°05' W 122°56'0 0.0
2017-Dec-11 05:30N 46°05' W 122°56'0 0.0
2017-Dec-11 04:21N 46°05' W 122°56'0 0.0
2017-Dec-11 03:48N 46°05' W 122°56'0 0.0
2017-Dec-11 03:30N 46°05' W 122°56'0 0.0
2017-Dec-11 02:33N 46°05' W 122°56'0 0.0
2017-Dec-11 02:30N 46°05' W 122°56'0 0.0
2017-Dec-11 02:00N 46°05' W 122°56'0 0.0
2017-Dec-11 01:30N 46°05' W 122°56'0 0.0
2017-Dec-11 00:57N 46°05' W 122°56'0 0.0
2017-Dec-11 00:03N 46°05' W 122°56'0 0.0
2017-Dec-11 00:00N 46°05' W 122°56'0 0.0
2017-Dec-10 23:30N 46°05' W 122°56'0 0.0
2017-Dec-10 23:00N 46°05' W 122°56'0 0.0
2017-Dec-10 22:30N 46°05' W 122°56'0 0.0
2017-Dec-10 21:57N 46°05' W 122°56'0 0.0
2017-Dec-10 21:30N 46°05' W 122°56'0 0.0
2017-Dec-10 20:57N 46°05' W 122°56'0 0.0
2017-Dec-10 20:21N 46°05' W 122°56'0 0.0
2017-Dec-10 20:00N 46°05' W 122°56'0 0.0
2017-Dec-10 19:06N 46°05' W 122°56'0 0.0
2017-Dec-10 18:57N 46°05' W 122°56'0 0.0
2017-Dec-10 18:30N 46°05' W 122°56'0 0.0
2017-Dec-10 17:57N 46°05' W 122°56'0 0.0
2017-Dec-10 17:21N 46°05' W 122°56'0 0.0
2017-Dec-10 17:00N 46°05' W 122°56'0 0.0
2017-Dec-10 16:30N 46°05' W 122°56'3 7.0
2017-Dec-10 16:01N 46°08' W 122°60'2 4.0
2017-Dec-10 15:30N 46°09' W 123°02'5 8.8
2017-Dec-10 14:56N 46°06' W 122°56'0 1.0
2017-Dec-10 14:30N 46°05' W 122°56'0 0.0
2017-Dec-10 14:00N 46°05' W 122°56'0 0.0
2017-Dec-10 13:21N 46°05' W 122°56'0 0.0
2017-Dec-10 13:00N 46°05' W 122°56'0 0.0
2017-Dec-10 12:27N 46°05' W 122°56'0 0.0
2017-Dec-10 12:00N 46°05' W 122°56'0 0.0
2017-Dec-10 11:30N 46°05' W 122°56'0 0.0
2017-Dec-10 11:00N 46°05' W 122°56'0 0.0
2017-Dec-10 10:24N 46°05' W 122°56'0 0.0
2017-Dec-10 09:54N 46°05' W 122°56'0 0.0
2017-Dec-10 09:30N 46°05' W 122°56'0 0.0
2017-Dec-10 08:57N 46°05' W 122°56'0 0.0
2017-Dec-10 08:30N 46°05' W 122°56'0 0.0
2017-Dec-10 08:00N 46°05' W 122°56'0 0.0
2017-Dec-10 07:15N 46°05' W 122°56'0 0.0
2017-Dec-10 07:00N 46°05' W 122°56'0 0.0
2017-Dec-10 06:30N 46°05' W 122°56'0 0.0
2017-Dec-10 06:00N 46°05' W 122°56'0 0.0
2017-Dec-10 05:21N 46°05' W 122°56'0 0.0
2017-Dec-10 04:57N 46°05' W 122°56'0 0.0
2017-Dec-10 04:27N 46°05' W 122°56'0 0.0
2017-Dec-10 04:00N 46°05' W 122°56'0 0.0
2017-Dec-10 03:30N 46°05' W 122°56'0 0.0
2017-Dec-10 03:00N 46°05' W 122°56'0 0.0
2017-Dec-10 02:24N 46°05' W 122°56'0 0.0
2017-Dec-10 02:00N 46°05' W 122°56'0 0.0
2017-Dec-10 01:30N 46°05' W 122°56'0 0.0
2017-Dec-10 01:00N 46°05' W 122°56'0 0.0
2017-Dec-10 00:27N 46°05' W 122°56'0 0.0
2017-Dec-09 23:51N 46°05' W 122°56'0 0.0
2017-Dec-09 23:30N 46°05' W 122°56'0 0.0
2017-Dec-09 22:51N 46°05' W 122°56'0 0.0
2017-Dec-09 22:30N 46°05' W 122°56'0 0.0
2017-Dec-09 22:00N 46°05' W 122°56'0 0.0
2017-Dec-09 21:30N 46°05' W 122°56'0 0.0
2017-Dec-09 21:00N 46°05' W 122°56'0 0.0
2017-Dec-09 20:30N 46°05' W 122°56'0 0.0
2017-Dec-09 20:00N 46°05' W 122°56'0 0.0
2017-Dec-09 19:30N 46°05' W 122°56'0 0.0
2017-Dec-09 18:27N 46°05' W 122°56'0 0.0
2017-Dec-09 18:00N 46°05' W 122°56'0 0.0
2017-Dec-09 17:27N 46°05' W 122°56'0 0.0
2017-Dec-09 17:00N 46°05' W 122°56'0 0.0
2017-Dec-09 16:27N 46°05' W 122°56'0 0.0
2017-Dec-09 15:45N 46°05' W 122°56'0 0.0
2017-Dec-09 15:30N 46°05' W 122°56'0 0.0
2017-Dec-09 14:18N 46°05' W 122°56'0 0.0
2017-Dec-09 13:48N 46°05' W 122°56'0 0.0
2017-Dec-09 13:24N 46°05' W 122°56'0 0.0
2017-Dec-09 13:00N 46°05' W 122°56'0 0.0
2017-Dec-09 12:30N 46°05' W 122°56'0 0.0
2017-Dec-09 11:57N 46°05' W 122°56'0 0.0
2017-Dec-09 11:18N 46°05' W 122°56'0 0.1
2017-Dec-09 11:00N 46°05' W 122°56'0 0.1
2017-Dec-09 10:30N 46°05' W 122°56'0 0.0
2017-Dec-09 09:57N 46°05' W 122°56'0 0.0
2017-Dec-09 09:30N 46°05' W 122°56'0 0.0
2017-Dec-09 08:57N 46°05' W 122°56'0 0.0
2017-Dec-09 08:30N 46°05' W 122°56'1 2.1
2017-Dec-09 08:00N 46°06' W 122°57'0 0.1
2017-Dec-09 07:30N 46°06' W 122°57'1 1.4
2017-Dec-09 06:48N 46°05' W 122°56'0 0.0
2017-Dec-09 06:00N 46°05' W 122°56'0 0.0
2017-Dec-09 05:30N 46°05' W 122°56'0 0.0
2017-Dec-09 04:54N 46°05' W 122°56'0 0.0
2017-Dec-09 04:30N 46°05' W 122°56'0 0.0
2017-Dec-09 04:00N 46°05' W 122°56'1 1.1
2017-Dec-09 03:30N 46°06' W 122°56'0 0.1
2017-Dec-09 03:01N 46°06' W 122°56'0 0.1
2017-Dec-09 02:31N 46°06' W 122°56'0 0.0
2017-Dec-09 02:00N 46°06' W 122°56'0 0.0
2017-Dec-09 01:30N 46°06' W 122°56'0 0.0
2017-Dec-09 01:00N 46°06' W 122°56'0 0.0
2017-Dec-09 00:30N 46°06' W 122°56'0 0.0
2017-Dec-09 00:00N 46°06' W 122°56'1 1.1
2017-Dec-08 23:30N 46°05' W 122°56'0 0.0
2017-Dec-08 23:00N 46°05' W 122°56'0 0.0
2017-Dec-08 22:30N 46°05' W 122°56'0 0.0
2017-Dec-08 22:00N 46°05' W 122°56'0 0.0
2017-Dec-08 21:31N 46°05' W 122°56'0 0.0
2017-Dec-08 21:00N 46°05' W 122°56'0 0.0
2017-Dec-08 20:31N 46°05' W 122°56'0 0.0
2017-Dec-08 20:00N 46°05' W 122°56'0 0.0
2017-Dec-08 19:31N 46°05' W 122°56'0 0.0
2017-Dec-08 19:00N 46°05' W 122°56'0 0.0
2017-Dec-08 18:30N 46°05' W 122°56'0 0.0
2017-Dec-08 18:00N 46°05' W 122°56'0 0.0
2017-Dec-08 17:30N 46°05' W 122°56'0 0.0
2017-Dec-08 17:00N 46°05' W 122°56'0 0.0
2017-Dec-08 16:30N 46°05' W 122°56'0 0.0
2017-Dec-08 16:00N 46°05' W 122°56'0 0.0
2017-Dec-08 15:31N 46°05' W 122°56'0 0.0
2017-Dec-08 15:00N 46°05' W 122°56'0 0.0
2017-Dec-08 14:31N 46°05' W 122°56'0 0.0
2017-Dec-08 14:00N 46°05' W 122°56'0 0.0
2017-Dec-08 13:30N 46°05' W 122°56'0 0.0
2017-Dec-08 13:00N 46°05' W 122°56'0 0.0
2017-Dec-08 12:30N 46°05' W 122°56'0 0.0
2017-Dec-08 12:00N 46°05' W 122°56'0 0.0
2017-Dec-08 11:30N 46°05' W 122°56'0 0.1
2017-Dec-08 11:00N 46°05' W 122°56'0 0.1
2017-Dec-08 10:31N 46°05' W 122°56'0 0.0
2017-Dec-08 10:00N 46°05' W 122°56'0 0.0
2017-Dec-08 09:30N 46°05' W 122°56'0 0.0
2017-Dec-08 08:56N 46°05' W 122°56'0 0.0
2017-Dec-08 08:27N 46°05' W 122°56'0 0.0
2017-Dec-08 08:00N 46°05' W 122°56'0 0.0
2017-Dec-08 07:31N 46°05' W 122°56'0 0.0
2017-Dec-08 07:00N 46°05' W 122°56'0 0.0
2017-Dec-08 06:30N 46°05' W 122°56'0 0.0
2017-Dec-08 06:00N 46°05' W 122°56'0 0.0
2017-Dec-08 05:29N 46°05' W 122°56'0 0.0
2017-Dec-08 05:00N 46°05' W 122°56'0 0.0
2017-Dec-08 04:30N 46°05' W 122°56'0 0.0
2017-Dec-08 04:00N 46°05' W 122°56'0 0.0
2017-Dec-08 03:30N 46°05' W 122°56'0 0.0
2017-Dec-08 03:00N 46°05' W 122°56'0 0.0
2017-Dec-08 02:30N 46°05' W 122°56'0 0.0
2017-Dec-08 02:00N 46°05' W 122°56'0 0.0
2017-Dec-08 01:30N 46°05' W 122°56'0 0.0
2017-Dec-08 01:00N 46°05' W 122°56'0 0.2
2017-Dec-08 00:30N 46°06' W 122°56'1 1.8
2017-Dec-08 00:00N 46°06' W 122°57'1 2.2
2017-Dec-07 23:31N 46°07' W 122°58'1 1.1
2017-Dec-07 23:00N 46°06' W 122°58'0 0.2
2017-Dec-07 22:30N 46°06' W 122°58'0 0.0
2017-Dec-07 22:00N 46°06' W 122°58'0 0.0
2017-Dec-07 21:30N 46°06' W 122°58'0 0.0
2017-Dec-07 21:00N 46°06' W 122°58'5 9.8
2017-Dec-07 20:30N 46°03' W 122°53'1 2.4
2017-Dec-07 20:01N 46°02' W 122°53'0 0.0
2017-Dec-07 19:30N 46°02' W 122°53'0 0.0
2017-Dec-07 19:00N 46°02' W 122°53'0 0.5
2017-Dec-07 18:30N 46°02' W 122°52'0 0.0
2017-Dec-07 18:00N 46°02' W 122°52'4 8.1
2017-Dec-07 17:30N 46°05' W 122°55'1 1.2
2017-Dec-07 17:00N 46°05' W 122°56'0 0.0
2017-Dec-07 16:30N 46°05' W 122°56'0 0.0
2017-Dec-07 16:00N 46°05' W 122°56'0 0.3
2017-Dec-07 15:30N 46°05' W 122°56'4 8.6
2017-Dec-07 15:00N 46°02' W 122°53'3 6.5
2017-Dec-07 14:30N 45°59' W 122°50'0 0.1
2017-Dec-07 14:00N 45°59' W 122°50'1 2.0
2017-Dec-07 13:30N 45°60' W 122°51'1 1.8
2017-Dec-07 13:00N 45°59' W 122°50'0 0.0
2017-Dec-07 12:30N 45°59' W 122°50'0 0.0
2017-Dec-07 12:00N 45°59' W 122°50'0 0.8
2017-Dec-07 11:30N 45°59' W 122°51'0 0.1
2017-Dec-07 11:00N 45°59' W 122°50'0 0.0
2017-Dec-07 10:30N 45°59' W 122°50'0 0.0
2017-Dec-07 10:00N 45°59' W 122°50'0 0.0
2017-Dec-07 09:30N 45°59' W 122°50'0 0.0
2017-Dec-07 09:00N 45°59' W 122°50'1 1.4
2017-Dec-07 08:30N 46°00' W 122°51'1 2.2
2017-Dec-07 08:00N 45°59' W 122°50'0 0.0
2017-Dec-07 07:30N 45°59' W 122°50'3 6.0
2017-Dec-07 07:00N 46°02' W 122°52'0 0.2
2017-Dec-07 06:30N 46°02' W 122°52'0 0.0
2017-Dec-07 06:00N 46°02' W 122°52'0 0.0
2017-Dec-07 05:30N 46°02' W 122°52'1 2.4
2017-Dec-07 05:01N 46°03' W 122°53'3 6.4
2017-Dec-07 04:30N 46°05' W 122°55'1 1.5
2017-Dec-07 04:01N 46°06' W 122°56'0 0.1
2017-Dec-07 03:30N 46°06' W 122°56'2 2.7
2017-Dec-07 02:38N 46°05' W 122°54'212.9
2017-Dec-07 02:31N 46°03' W 122°53'1 2.7
2017-Dec-07 02:00N 46°02' W 122°52'0 1.0
2017-Dec-07 01:30N 46°02' W 122°53'3 6.1
2017-Dec-07 01:00N 46°05' W 122°54'2 3.7
2017-Dec-07 00:30N 46°06' W 122°56'0 0.1
2017-Dec-07 00:00N 46°06' W 122°56'1 1.0
2017-Dec-06 23:30N 46°05' W 122°56'0 0.0
2017-Dec-06 22:56N 46°05' W 122°56'0 0.0
2017-Dec-06 22:26N 46°05' W 122°56'0 0.0
2017-Dec-06 21:59N 46°05' W 122°56'0 0.0
2017-Dec-06 21:26N 46°05' W 122°56'0 0.0
2017-Dec-06 20:59N 46°05' W 122°56'  

Dump ship's entire track history